This is the latest recevied weather packets stored in our database for station/object N4AR. If no packets are shown the sender has not sent any weather packets the latest 10 day(s).
| Time | Temp. | Humidity | Pressure | Rain* | Wind** | Luminosity | Snow |
|---|---|---|---|---|---|---|---|
| 1777413086 | 19.44° C | 55% | 1017.8 hPa | 0 mm | - | 285 W/m² | - |
| 1777412781 | 19.44° C | 56% | 1017.7 hPa | 0 mm | - | 185 W/m² | - |
| 1777412481 | 19.44° C | 54% | 1017.7 hPa | 0 mm | - | 363 W/m² | - |
| 1777412178 | 20° C | 52% | 1017.7 hPa | 0 mm | - | 270 W/m² | - |
| 1777411875 | 20° C | 52% | 1017.8 hPa | 0 mm | - | 362 W/m² | - |
| 1777411573 | 19.44° C | 53% | 1017.9 hPa | 0 mm | - | 430 W/m² | - |
| 1777411268 | 19.44° C | 53% | 1017.9 hPa | 0 mm | - | 451 W/m² | - |
| 1777410963 | 20° C | 49% | 1018.2 hPa | 0 mm | - | 470 W/m² | - |
| 1777410663 | 20° C | 49% | 1018.2 hPa | 0 mm | - | 482 W/m² | - |
| 1777410357 | 20° C | 51% | 1018 hPa | 0 mm | - | 433 W/m² | - |
| 1777410057 | 20° C | 51% | 1018.1 hPa | 0 mm | - | 504 W/m² | - |
| 1777409756 | 19.44° C | 52% | 1018.3 hPa | 0 mm | - | 551 W/m² | - |
| 1777409453 | 20° C | 52% | 1018.5 hPa | 0 mm | - | 471 W/m² | - |
| 1777409149 | 18.89° C | 55% | 1018.3 hPa | 0 mm | - | 564 W/m² | - |
| 1777408845 | 18.89° C | 57% | 1018.3 hPa | 0 mm | - | 402 W/m² | - |
| 1777408542 | 18.89° C | 53% | 1018.6 hPa | 0 mm | - | 529 W/m² | - |
| 1777408241 | 18.33° C | 52% | 1019 hPa | 0 mm | - | 634 W/m² | - |
| 1777407937 | 18.89° C | 52% | 1018.9 hPa | 0 mm | - | 230 W/m² | - |
| 1777407635 | 18.89° C | 54% | 1018.8 hPa | 0 mm | - | 226 W/m² | - |
| 1777407334 | 18.89° C | 52% | 1019 hPa | 0 mm | - | 330 W/m² | - |
| 1777407029 | 19.44° C | 51% | 1019.1 hPa | 0 mm | - | 424 W/m² | - |
| 1777406725 | 19.44° C | 51% | 1019.1 hPa | 0 mm | - | 398 W/m² | - |
| 1777406420 | 18.89° C | 52% | 1019.3 hPa | 0 mm | - | 394 W/m² | - |
| 1777406119 | 18.89° C | 50% | 1019.2 hPa | 0 mm | - | 675 W/m² | - |
| 1777405816 | 19.44° C | 49% | 1019.3 hPa | 0 mm | - | 518 W/m² | - |
* Rain latest hour (hover to see other rain measurements)
** Current wind speed in m/s (hover to see current wind gust speed)